createdAt,value
2019-04-07T00:02:50.777Z,11.40
2019-04-07T00:05:57.510Z,11.40
2019-04-07T00:08:24.470Z,11.40
2019-04-07T00:13:49.975Z,11.20
2019-04-07T00:22:46.058Z,11.30
2019-04-07T00:25:19.322Z,11.20
2019-04-07T00:30:37.237Z,11.10
2019-04-07T00:33:26.311Z,11.00
2019-04-07T00:35:59.434Z,11.00
2019-04-07T00:38:50.408Z,11.00
2019-04-07T00:41:45.386Z,11.10
2019-04-07T00:44:15.698Z,11.10
2019-04-07T00:46:47.606Z,11.00
2019-04-07T00:49:36.884Z,10.90
2019-04-07T00:55:02.517Z,10.80
2019-04-07T00:57:52.913Z,10.70
2019-04-07T01:00:43.425Z,10.60
2019-04-07T01:03:34.871Z,10.60
2019-04-07T01:06:25.226Z,10.60
2019-04-07T01:09:15.481Z,10.50
2019-04-07T01:14:38.092Z,10.40
2019-04-07T01:17:26.926Z,10.40
2019-04-07T01:20:16.130Z,10.40
2019-04-07T01:23:07.056Z,10.30
2019-04-07T01:25:57.337Z,10.40
2019-04-07T01:28:39.452Z,10.30
2019-04-07T01:31:08.907Z,10.30
2019-04-07T01:33:57.702Z,10.20
2019-04-07T01:36:48.032Z,10.20
2019-04-07T01:39:22.020Z,10.30
2019-04-07T01:42:30.171Z,10.20
2019-04-07T01:45:38.002Z,10.10
2019-04-07T01:51:52.935Z,10.00
2019-04-07T01:55:00.454Z,10.10
2019-04-07T01:58:14.071Z,10.00
2019-04-07T02:01:02.899Z,10.00
2019-04-07T02:04:11.615Z,9.90
2019-04-07T02:07:19.534Z,9.80
2019-04-07T02:10:30.605Z,9.80
2019-04-07T02:13:26.456Z,9.80
2019-04-07T02:16:29.140Z,9.70
2019-04-07T02:19:37.074Z,9.70
2019-04-07T02:22:46.549Z,9.70
2019-04-07T02:25:45.551Z,9.60
2019-04-07T02:28:49.593Z,9.60
2019-04-07T02:31:42.243Z,9.50
2019-04-07T02:34:36.337Z,9.40
2019-04-07T02:37:26.606Z,9.50
2019-04-07T02:40:29.763Z,9.40
2019-04-07T02:43:38.442Z,9.40
2019-04-07T02:46:36.839Z,9.30
2019-04-07T02:49:47.557Z,9.30
2019-04-07T02:52:47.660Z,9.30
2019-04-07T02:55:55.163Z,9.30
2019-04-07T02:59:02.515Z,9.30
2019-04-07T03:01:59.679Z,9.40
2019-04-07T03:05:08.074Z,9.40
2019-04-07T03:08:18.604Z,9.50
2019-04-07T03:11:07.568Z,9.50
2019-04-07T03:14:01.471Z,9.40
2019-04-07T03:16:59.952Z,9.40
2019-04-07T03:20:08.839Z,9.30
2019-04-07T03:23:16.782Z,9.30
2019-04-07T03:26:24.226Z,9.30
2019-04-07T03:29:06.448Z,9.30
2019-04-07T03:34:42.005Z,9.10
2019-04-07T03:37:41.229Z,9.00
2019-04-07T03:40:30.246Z,9.00
2019-04-07T03:43:30.422Z,8.90
2019-04-07T03:46:20.290Z,8.90
2019-04-07T03:49:10.092Z,8.80
2019-04-07T03:52:17.839Z,8.80
2019-04-07T03:55:25.526Z,8.70
2019-04-07T03:58:33.107Z,8.70
2019-04-07T04:01:41.437Z,8.60
2019-04-07T04:04:50.068Z,8.60
2019-04-07T04:07:44.268Z,8.50
2019-04-07T04:10:53.243Z,8.50
2019-04-07T04:14:01.528Z,8.40
2019-04-07T04:16:51.910Z,8.40
2019-04-07T04:19:40.718Z,8.40
2019-04-07T04:22:30.954Z,8.40
2019-04-07T04:25:19.558Z,8.30
2019-04-07T04:28:08.491Z,8.40
2019-04-07T04:30:50.712Z,8.30
2019-04-07T04:33:33.041Z,8.40
2019-04-07T04:36:15.572Z,8.40
2019-04-07T04:38:57.766Z,8.40
2019-04-07T04:41:40.327Z,8.40
2019-04-07T04:44:22.524Z,8.30
2019-04-07T04:47:04.816Z,8.40
2019-04-07T04:49:42.048Z,8.40
2019-04-07T04:52:13.573Z,8.40
2019-04-07T04:55:04.022Z,8.40
2019-04-07T04:57:54.516Z,8.40
2019-04-07T05:00:43.081Z,8.40
2019-04-07T05:03:32.776Z,8.60
2019-04-07T05:06:22.440Z,8.90
2019-04-07T05:09:10.941Z,9.20
2019-04-07T05:12:00.459Z,9.40
2019-04-07T05:14:49.242Z,9.50
2019-04-07T05:17:38.185Z,9.60
2019-04-07T05:20:26.859Z,9.50
2019-04-07T05:22:56.791Z,9.50
2019-04-07T05:25:46.147Z,9.30
2019-04-07T05:28:36.939Z,9.20
2019-04-07T05:31:17.748Z,9.00
2019-04-07T05:36:41.552Z,9.00
2019-04-07T05:42:06.999Z,9.10
2019-04-07T05:44:48.674Z,9.20
2019-04-07T05:47:31.393Z,9.20
2019-04-07T05:50:13.317Z,9.20
2019-04-07T05:52:44.427Z,9.30
2019-04-07T05:55:14.349Z,9.40
2019-04-07T05:58:05.031Z,9.50
2019-04-07T06:00:54.646Z,9.50
2019-04-07T06:06:40.781Z,9.70
2019-04-07T06:09:11.719Z,9.80
2019-04-07T06:12:05.866Z,10.00
2019-04-07T06:14:39.214Z,10.10
2019-04-07T06:18:17.294Z,10.20
2019-04-07T06:30:02.889Z,10.80
2019-04-07T06:32:47.377Z,10.90
2019-04-07T06:35:31.439Z,11.10
2019-04-07T06:38:16.620Z,11.20
2019-04-07T06:41:00.904Z,11.40
2019-04-07T06:43:41.250Z,11.30
2019-04-07T07:03:18.220Z,11.80
2019-04-07T07:09:15.529Z,12.20
2019-04-07T07:14:48.046Z,12.40
2019-04-07T07:32:12.616Z,13.30
2019-04-07T07:40:35.088Z,13.60
2019-04-07T07:43:17.835Z,13.70
2019-04-07T07:46:32.239Z,13.90
2019-04-07T07:49:04.600Z,14.00
2019-04-07T07:57:24.855Z,14.40
2019-04-07T08:03:10.778Z,14.70
2019-04-07T08:06:04.684Z,14.80
2019-04-07T08:08:33.168Z,14.90
2019-04-07T08:11:21.729Z,15.10
2019-04-07T08:14:15.157Z,15.20
2019-04-07T08:17:03.974Z,15.30
2019-04-07T08:19:54.643Z,15.40
2019-04-07T08:23:03.601Z,15.50
2019-04-07T08:25:55.990Z,15.60
2019-04-07T08:28:46.721Z,15.80
2019-04-07T08:34:30.504Z,15.90
2019-04-07T08:37:16.273Z,16.10
2019-04-07T08:40:04.244Z,16.30
2019-04-07T09:02:11.593Z,17.00
2019-04-07T09:09:07.146Z,16.90
2019-04-07T09:21:42.177Z,17.20
2019-04-07T09:30:53.680Z,17.70
2019-04-07T09:40:01.131Z,17.90
2019-04-07T09:42:41.256Z,17.80
2019-04-07T09:46:03.508Z,17.90
2019-04-07T09:52:49.032Z,18.30
2019-04-07T10:50:43.775Z,18.60
2019-04-07T18:20:10.768Z,15.90
2019-04-07T18:23:18.718Z,15.90
2019-04-07T19:04:40.270Z,14.50
2019-04-07T19:16:55.334Z,13.90
2019-04-07T19:19:48.484Z,13.80
2019-04-07T19:38:43.869Z,13.40
2019-04-07T20:16:28.424Z,13.20
2019-04-07T20:19:18.771Z,13.10
2019-04-07T20:22:22.638Z,13.10
2019-04-07T20:25:15.748Z,13.00
2019-04-07T21:21:43.923Z,11.80
